sensor_id;sensor_type;location;lat;lon;timestamp;temperature;humidity
51029;DHT22;37054;52.054;8.600;2022-07-10T00:02:10;21.10;41.90
51029;DHT22;37054;52.054;8.600;2022-07-10T00:04:35;21.10;41.90
51029;DHT22;37054;52.054;8.600;2022-07-10T00:07:01;21.10;42.00
51029;DHT22;37054;52.054;8.600;2022-07-10T00:09:27;21.10;42.00
51029;DHT22;37054;52.054;8.600;2022-07-10T00:11:56;21.10;42.00
51029;DHT22;37054;52.054;8.600;2022-07-10T00:14:22;21.10;42.00
51029;DHT22;37054;52.054;8.600;2022-07-10T00:16:47;21.10;42.00
51029;DHT22;37054;52.054;8.600;2022-07-10T00:19:12;21.10;41.90
51029;DHT22;37054;52.054;8.600;2022-07-10T00:21:38;21.10;41.90
51029;DHT22;37054;52.054;8.600;2022-07-10T00:29:56;21.00;41.90
51029;DHT22;37054;52.054;8.600;2022-07-10T00:32:35;21.00;42.00
51029;DHT22;37054;52.054;8.600;2022-07-10T00:35:00;21.00;42.10
51029;DHT22;37054;52.054;8.600;2022-07-10T00:37:27;21.00;42.20
51029;DHT22;37054;52.054;8.600;2022-07-10T00:39:52;21.00;42.20
51029;DHT22;37054;52.054;8.600;2022-07-10T00:42:20;21.00;42.30
51029;DHT22;37054;52.054;8.600;2022-07-10T00:44:46;21.00;42.30
51029;DHT22;37054;52.054;8.600;2022-07-10T00:47:12;20.90;42.40
51029;DHT22;37054;52.054;8.600;2022-07-10T00:49:39;20.90;42.40
51029;DHT22;37054;52.054;8.600;2022-07-10T00:52:06;20.90;42.60
51029;DHT22;37054;52.054;8.600;2022-07-10T00:54:32;20.90;42.70
51029;DHT22;37054;52.054;8.600;2022-07-10T00:56:59;20.90;42.70
51029;DHT22;37054;52.054;8.600;2022-07-10T00:59:25;20.90;42.70
51029;DHT22;37054;52.054;8.600;2022-07-10T01:01:50;20.90;42.80
51029;DHT22;37054;52.054;8.600;2022-07-10T01:04:16;20.80;42.80
51029;DHT22;37054;52.054;8.600;2022-07-10T01:06:42;20.80;42.80
51029;DHT22;37054;52.054;8.600;2022-07-10T01:09:07;20.80;43.00
51029;DHT22;37054;52.054;8.600;2022-07-10T01:11:36;20.80;43.00
51029;DHT22;37054;52.054;8.600;2022-07-10T01:14:02;20.80;42.90
51029;DHT22;37054;52.054;8.600;2022-07-10T01:16:28;20.80;43.00
51029;DHT22;37054;52.054;8.600;2022-07-10T01:18:55;20.80;43.00
51029;DHT22;37054;52.054;8.600;2022-07-10T01:21:27;20.80;43.00
51029;DHT22;37054;52.054;8.600;2022-07-10T01:23:53;20.80;43.20
51029;DHT22;37054;52.054;8.600;2022-07-10T01:26:19;20.70;43.40
51029;DHT22;37054;52.054;8.600;2022-07-10T01:28:47;20.70;43.30
51029;DHT22;37054;52.054;8.600;2022-07-10T01:31:12;20.70;43.50
51029;DHT22;37054;52.054;8.600;2022-07-10T01:33:37;20.70;43.60
51029;DHT22;37054;52.054;8.600;2022-07-10T01:36:03;20.70;43.60
51029;DHT22;37054;52.054;8.600;2022-07-10T01:38:28;20.70;43.80
51029;DHT22;37054;52.054;8.600;2022-07-10T01:40:55;20.60;43.80
51029;DHT22;37054;52.054;8.600;2022-07-10T01:43:20;20.50;44.00
51029;DHT22;37054;52.054;8.600;2022-07-10T01:45:45;20.60;44.10
51029;DHT22;37054;52.054;8.600;2022-07-10T01:48:11;20.60;44.10
51029;DHT22;37054;52.054;8.600;2022-07-10T01:50:43;20.60;44.00
51029;DHT22;37054;52.054;8.600;2022-07-10T01:53:08;20.50;44.10
51029;DHT22;37054;52.054;8.600;2022-07-10T01:55:37;20.50;44.20
51029;DHT22;37054;52.054;8.600;2022-07-10T01:58:02;20.50;44.30
51029;DHT22;37054;52.054;8.600;2022-07-10T02:00:28;20.50;44.30
51029;DHT22;37054;52.054;8.600;2022-07-10T02:02:54;20.50;44.50
51029;DHT22;37054;52.054;8.600;2022-07-10T02:08:24;20.40;44.60
51029;DHT22;37054;52.054;8.600;2022-07-10T02:10:49;20.50;44.50
51029;DHT22;37054;52.054;8.600;2022-07-10T02:13:15;20.40;44.60
51029;DHT22;37054;52.054;8.600;2022-07-10T02:15:43;20.40;44.60
51029;DHT22;37054;52.054;8.600;2022-07-10T02:18:08;20.40;44.50
51029;DHT22;37054;52.054;8.600;2022-07-10T02:20:37;20.50;44.50
51029;DHT22;37054;52.054;8.600;2022-07-10T02:23:03;20.40;44.50
51029;DHT22;37054;52.054;8.600;2022-07-10T02:25:29;20.50;44.50
51029;DHT22;37054;52.054;8.600;2022-07-10T02:27:54;20.50;44.50
51029;DHT22;37054;52.054;8.600;2022-07-10T02:30:20;20.50;44.60
51029;DHT22;37054;52.054;8.600;2022-07-10T02:32:45;20.40;44.50
51029;DHT22;37054;52.054;8.600;2022-07-10T02:35:11;20.40;44.70
51029;DHT22;37054;52.054;8.600;2022-07-10T02:37:36;20.40;44.70
51029;DHT22;37054;52.054;8.600;2022-07-10T02:40:02;20.40;44.60
51029;DHT22;37054;52.054;8.600;2022-07-10T02:42:27;20.40;44.60
51029;DHT22;37054;52.054;8.600;2022-07-10T02:44:53;20.40;44.70
51029;DHT22;37054;52.054;8.600;2022-07-10T02:47:18;20.40;44.80
51029;DHT22;37054;52.054;8.600;2022-07-10T02:49:44;20.40;44.90
51029;DHT22;37054;52.054;8.600;2022-07-10T02:52:09;20.40;44.80
51029;DHT22;37054;52.054;8.600;2022-07-10T02:54:35;20.40;44.80
51029;DHT22;37054;52.054;8.600;2022-07-10T02:57:00;20.40;44.80
51029;DHT22;37054;52.054;8.600;2022-07-10T02:59:26;20.40;44.70
51029;DHT22;37054;52.054;8.600;2022-07-10T03:01:51;20.40;44.90
51029;DHT22;37054;52.054;8.600;2022-07-10T03:04:17;20.40;44.90
51029;DHT22;37054;52.054;8.600;2022-07-10T03:06:42;20.30;44.90
51029;DHT22;37054;52.054;8.600;2022-07-10T03:09:08;20.30;44.90
51029;DHT22;37054;52.054;8.600;2022-07-10T03:11:33;20.30;44.90
51029;DHT22;37054;52.054;8.600;2022-07-10T03:13:59;20.30;45.00
51029;DHT22;37054;52.054;8.600;2022-07-10T03:16:24;20.30;45.10
51029;DHT22;37054;52.054;8.600;2022-07-10T03:18:49;20.30;45.00
51029;DHT22;37054;52.054;8.600;2022-07-10T03:21:15;20.40;45.00
51029;DHT22;37054;52.054;8.600;2022-07-10T03:23:40;20.30;44.90
51029;DHT22;37054;52.054;8.600;2022-07-10T03:26:06;20.40;44.90
51029;DHT22;37054;52.054;8.600;2022-07-10T03:28:33;20.40;45.00
51029;DHT22;37054;52.054;8.600;2022-07-10T03:30:58;20.40;45.00
51029;DHT22;37054;52.054;8.600;2022-07-10T03:33:24;20.40;45.00
51029;DHT22;37054;52.054;8.600;2022-07-10T03:35:49;20.40;45.00
51029;DHT22;37054;52.054;8.600;2022-07-10T03:38:14;20.40;45.10
51029;DHT22;37054;52.054;8.600;2022-07-10T03:40:40;20.30;45.20
51029;DHT22;37054;52.054;8.600;2022-07-10T03:43:08;20.40;45.40
51029;DHT22;37054;52.054;8.600;2022-07-10T03:45:36;20.30;45.40
51029;DHT22;37054;52.054;8.600;2022-07-10T03:48:02;20.30;45.50
51029;DHT22;37054;52.054;8.600;2022-07-10T03:50:27;20.30;45.50
51029;DHT22;37054;52.054;8.600;2022-07-10T03:52:53;20.30;45.70
51029;DHT22;37054;52.054;8.600;2022-07-10T03:55:18;20.30;45.80
51029;DHT22;37054;52.054;8.600;2022-07-10T03:57:44;20.30;45.80
51029;DHT22;37054;52.054;8.600;2022-07-10T04:00:19;20.30;45.80
51029;DHT22;37054;52.054;8.600;2022-07-10T04:02:47;20.30;45.90
51029;DHT22;37054;52.054;8.600;2022-07-10T04:05:12;20.30;45.80
51029;DHT22;37054;52.054;8.600;2022-07-10T04:07:38;20.30;45.80
51029;DHT22;37054;52.054;8.600;2022-07-10T04:10:03;20.30;45.80
51029;DHT22;37054;52.054;8.600;2022-07-10T04:12:29;20.30;45.80
51029;DHT22;37054;52.054;8.600;2022-07-10T04:14:54;20.30;45.80
51029;DHT22;37054;52.054;8.600;2022-07-10T04:17:21;20.40;45.90
51029;DHT22;37054;52.054;8.600;2022-07-10T04:19:52;20.40;45.90
51029;DHT22;37054;52.054;8.600;2022-07-10T04:22:18;20.40;45.90
51029;DHT22;37054;52.054;8.600;2022-07-10T04:24:43;20.40;45.90
51029;DHT22;37054;52.054;8.600;2022-07-10T04:27:09;20.40;45.90
51029;DHT22;37054;52.054;8.600;2022-07-10T04:29:34;20.50;45.90
51029;DHT22;37054;52.054;8.600;2022-07-10T04:32:00;20.50;45.90
51029;DHT22;37054;52.054;8.600;2022-07-10T04:34:25;20.50;45.80
51029;DHT22;37054;52.054;8.600;2022-07-10T04:36:54;20.50;45.80
51029;DHT22;37054;52.054;8.600;2022-07-10T04:39:19;20.50;45.80
51029;DHT22;37054;52.054;8.600;2022-07-10T04:41:45;20.60;45.80
51029;DHT22;37054;52.054;8.600;2022-07-10T04:44:10;20.70;45.70
51029;DHT22;37054;52.054;8.600;2022-07-10T04:46:42;20.70;45.60
51029;DHT22;37054;52.054;8.600;2022-07-10T04:49:07;20.70;45.60
51029;DHT22;37054;52.054;8.600;2022-07-10T04:51:33;20.80;45.50
51029;DHT22;37054;52.054;8.600;2022-07-10T04:53:58;20.80;45.50
51029;DHT22;37054;52.054;8.600;2022-07-10T04:56:27;20.80;45.40
51029;DHT22;37054;52.054;8.600;2022-07-10T04:58:52;20.90;45.40
51029;DHT22;37054;52.054;8.600;2022-07-10T05:01:18;20.90;45.40
51029;DHT22;37054;52.054;8.600;2022-07-10T05:03:44;21.00;45.40
51029;DHT22;37054;52.054;8.600;2022-07-10T05:06:09;21.00;45.30
51029;DHT22;37054;52.054;8.600;2022-07-10T05:08:36;21.00;45.30
51029;DHT22;37054;52.054;8.600;2022-07-10T05:11:01;21.00;45.40
51029;DHT22;37054;52.054;8.600;2022-07-10T05:13:27;21.00;45.30
51029;DHT22;37054;52.054;8.600;2022-07-10T05:15:52;21.10;45.30
51029;DHT22;37054;52.054;8.600;2022-07-10T05:18:18;21.10;45.40
51029;DHT22;37054;52.054;8.600;2022-07-10T05:20:43;21.10;45.30
51029;DHT22;37054;52.054;8.600;2022-07-10T05:23:11;21.20;45.20
51029;DHT22;37054;52.054;8.600;2022-07-10T05:25:37;21.20;45.20
51029;DHT22;37054;52.054;8.600;2022-07-10T05:28:03;21.30;45.10
51029;DHT22;37054;52.054;8.600;2022-07-10T05:30:29;21.30;45.00
51029;DHT22;37054;52.054;8.600;2022-07-10T05:32:54;21.30;45.00
51029;DHT22;37054;52.054;8.600;2022-07-10T05:35:20;21.40;44.90
51029;DHT22;37054;52.054;8.600;2022-07-10T05:37:46;21.50;44.90
51029;DHT22;37054;52.054;8.600;2022-07-10T05:40:14;21.60;44.90
51029;DHT22;37054;52.054;8.600;2022-07-10T05:42:39;21.70;44.80
51029;DHT22;37054;52.054;8.600;2022-07-10T05:45:05;21.70;44.70
51029;DHT22;37054;52.054;8.600;2022-07-10T05:47:31;21.80;44.70
51029;DHT22;37054;52.054;8.600;2022-07-10T05:50:00;21.90;44.60
51029;DHT22;37054;52.054;8.600;2022-07-10T05:52:25;21.90;44.50
51029;DHT22;37054;52.054;8.600;2022-07-10T05:54:51;21.90;44.40
51029;DHT22;37054;52.054;8.600;2022-07-10T05:57:16;22.00;44.40
51029;DHT22;37054;52.054;8.600;2022-07-10T05:59:42;22.10;44.40
51029;DHT22;37054;52.054;8.600;2022-07-10T06:02:07;22.20;44.30
51029;DHT22;37054;52.054;8.600;2022-07-10T06:04:33;22.20;44.20
51029;DHT22;37054;52.054;8.600;2022-07-10T06:06:59;22.20;44.10
51029;DHT22;37054;52.054;8.600;2022-07-10T06:09:24;22.30;44.00
51029;DHT22;37054;52.054;8.600;2022-07-10T06:11:50;22.30;44.00
51029;DHT22;37054;52.054;8.600;2022-07-10T06:14:15;22.40;43.90
51029;DHT22;37054;52.054;8.600;2022-07-10T06:16:41;22.50;43.90
51029;DHT22;37054;52.054;8.600;2022-07-10T06:19:06;22.60;43.70
51029;DHT22;37054;52.054;8.600;2022-07-10T06:21:32;22.70;43.60
51029;DHT22;37054;52.054;8.600;2022-07-10T06:23:57;22.70;43.80
51029;DHT22;37054;52.054;8.600;2022-07-10T06:26:24;22.80;44.10
51029;DHT22;37054;52.054;8.600;2022-07-10T06:28:49;22.80;44.30
51029;DHT22;37054;52.054;8.600;2022-07-10T06:31:15;23.00;44.10
51029;DHT22;37054;52.054;8.600;2022-07-10T06:33:40;23.10;43.40
51029;DHT22;37054;52.054;8.600;2022-07-10T06:36:06;23.20;43.20
51029;DHT22;37054;52.054;8.600;2022-07-10T06:38:32;23.30;43.10
51029;DHT22;37054;52.054;8.600;2022-07-10T06:40:57;23.40;42.90
51029;DHT22;37054;52.054;8.600;2022-07-10T06:43:23;23.70;42.60
51029;DHT22;37054;52.054;8.600;2022-07-10T06:45:49;23.80;42.30
51029;DHT22;37054;52.054;8.600;2022-07-10T06:48:14;24.10;42.00
51029;DHT22;37054;52.054;8.600;2022-07-10T06:50:40;24.40;41.70
51029;DHT22;37054;52.054;8.600;2022-07-10T06:53:06;24.80;41.60
51029;DHT22;37054;52.054;8.600;2022-07-10T06:55:32;25.10;40.80
51029;DHT22;37054;52.054;8.600;2022-07-10T06:57:59;25.30;39.80
51029;DHT22;37054;52.054;8.600;2022-07-10T07:00:24;25.40;39.40
51029;DHT22;37054;52.054;8.600;2022-07-10T07:02:50;25.50;38.60
51029;DHT22;37054;52.054;8.600;2022-07-10T07:05:16;25.70;38.80
51029;DHT22;37054;52.054;8.600;2022-07-10T07:07:41;25.80;38.60
51029;DHT22;37054;52.054;8.600;2022-07-10T07:10:07;26.00;38.50
51029;DHT22;37054;52.054;8.600;2022-07-10T07:12:33;26.20;38.20
51029;DHT22;37054;52.054;8.600;2022-07-10T07:15:02;26.30;37.50
51029;DHT22;37054;52.054;8.600;2022-07-10T07:17:35;26.40;37.00
51029;DHT22;37054;52.054;8.600;2022-07-10T07:20:22;26.40;36.70
51029;DHT22;37054;52.054;8.600;2022-07-10T07:23:06;26.30;36.10
51029;DHT22;37054;52.054;8.600;2022-07-10T07:25:34;26.10;36.10
51029;DHT22;37054;52.054;8.600;2022-07-10T07:28:00;25.90;36.00
51029;DHT22;37054;52.054;8.600;2022-07-10T07:30:26;25.80;36.40
51029;DHT22;37054;52.054;8.600;2022-07-10T07:32:51;25.80;36.70
51029;DHT22;37054;52.054;8.600;2022-07-10T07:35:17;26.00;36.80
51029;DHT22;37054;52.054;8.600;2022-07-10T07:37:51;26.10;36.40
51029;DHT22;37054;52.054;8.600;2022-07-10T07:40:25;26.20;36.00
51029;DHT22;37054;52.054;8.600;2022-07-10T07:42:51;26.20;36.20
51029;DHT22;37054;52.054;8.600;2022-07-10T07:45:18;26.30;36.20
51029;DHT22;37054;52.054;8.600;2022-07-10T07:47:45;26.30;35.90
51029;DHT22;37054;52.054;8.600;2022-07-10T07:50:12;26.20;35.50
51029;DHT22;37054;52.054;8.600;2022-07-10T07:52:37;26.10;35.70
51029;DHT22;37054;52.054;8.600;2022-07-10T07:55:03;26.10;36.00
51029;DHT22;37054;52.054;8.600;2022-07-10T07:57:29;26.20;35.80
51029;DHT22;37054;52.054;8.600;2022-07-10T07:59:54;26.10;35.70
51029;DHT22;37054;52.054;8.600;2022-07-10T08:02:20;26.10;35.70
51029;DHT22;37054;52.054;8.600;2022-07-10T08:04:46;26.20;35.70
51029;DHT22;37054;52.054;8.600;2022-07-10T08:07:14;26.20;35.10
51029;DHT22;37054;52.054;8.600;2022-07-10T08:09:40;26.20;35.40
51029;DHT22;37054;52.054;8.600;2022-07-10T08:12:05;26.30;35.80
51029;DHT22;37054;52.054;8.600;2022-07-10T08:14:33;26.70;35.80
51029;DHT22;37054;52.054;8.600;2022-07-10T08:16:59;27.30;36.00
51029;DHT22;37054;52.054;8.600;2022-07-10T08:19:25;28.00;35.70
51029;DHT22;37054;52.054;8.600;2022-07-10T08:21:53;29.00;34.50
51029;DHT22;37054;52.054;8.600;2022-07-10T08:24:18;29.90;33.30
51029;DHT22;37054;52.054;8.600;2022-07-10T08:26:43;30.70;30.70
51029;DHT22;37054;52.054;8.600;2022-07-10T08:29:09;31.10;28.80
51029;DHT22;37054;52.054;8.600;2022-07-10T08:31:35;31.20;28.30
51029;DHT22;37054;52.054;8.600;2022-07-10T08:34:00;31.20;28.10
51029;DHT22;37054;52.054;8.600;2022-07-10T08:36:26;31.30;28.20
51029;DHT22;37054;52.054;8.600;2022-07-10T08:38:52;31.30;27.80
51029;DHT22;37054;52.054;8.600;2022-07-10T08:41:22;31.50;27.20
51029;DHT22;37054;52.054;8.600;2022-07-10T08:43:49;31.40;26.50
51029;DHT22;37054;52.054;8.600;2022-07-10T08:46:15;31.40;26.60
51029;DHT22;37054;52.054;8.600;2022-07-10T08:48:42;31.50;26.60
51029;DHT22;37054;52.054;8.600;2022-07-10T08:51:11;31.80;26.50
51029;DHT22;37054;52.054;8.600;2022-07-10T08:53:40;31.80;26.20
51029;DHT22;37054;52.054;8.600;2022-07-10T08:56:06;32.10;25.90
51029;DHT22;37054;52.054;8.600;2022-07-10T08:58:31;32.10;25.00
51029;DHT22;37054;52.054;8.600;2022-07-10T09:00:58;32.00;25.20
51029;DHT22;37054;52.054;8.600;2022-07-10T09:03:23;32.00;25.20
51029;DHT22;37054;52.054;8.600;2022-07-10T09:05:49;31.70;25.10
51029;DHT22;37054;52.054;8.600;2022-07-10T09:10:48;31.40;25.40
51029;DHT22;37054;52.054;8.600;2022-07-10T09:13:21;31.40;25.30
51029;DHT22;37054;52.054;8.600;2022-07-10T09:15:49;31.50;25.50
51029;DHT22;37054;52.054;8.600;2022-07-10T09:18:18;31.80;25.40
51029;DHT22;37054;52.054;8.600;2022-07-10T09:20:46;31.90;24.70
51029;DHT22;37054;52.054;8.600;2022-07-10T09:23:18;32.00;24.90
51029;DHT22;37054;52.054;8.600;2022-07-10T09:25:45;32.10;24.90
51029;DHT22;37054;52.054;8.600;2022-07-10T09:28:13;32.20;24.70
51029;DHT22;37054;52.054;8.600;2022-07-10T09:30:39;32.30;24.50
51029;DHT22;37054;52.054;8.600;2022-07-10T09:36:03;32.20;24.40
51029;DHT22;37054;52.054;8.600;2022-07-10T09:41:14;31.90;24.60
51029;DHT22;37054;52.054;8.600;2022-07-10T09:43:46;31.80;24.80
51029;DHT22;37054;52.054;8.600;2022-07-10T09:46:11;31.70;24.60
51029;DHT22;37054;52.054;8.600;2022-07-10T09:48:37;31.40;24.80
51029;DHT22;37054;52.054;8.600;2022-07-10T09:51:03;31.10;25.00
51029;DHT22;37054;52.054;8.600;2022-07-10T09:53:31;30.80;25.70
51029;DHT22;37054;52.054;8.600;2022-07-10T09:55:57;30.70;26.10
51029;DHT22;37054;52.054;8.600;2022-07-10T09:58:26;30.40;26.30
51029;DHT22;37054;52.054;8.600;2022-07-10T10:00:54;30.20;26.50
51029;DHT22;37054;52.054;8.600;2022-07-10T10:03:21;30.00;26.70
51029;DHT22;37054;52.054;8.600;2022-07-10T10:05:53;29.90;27.10
51029;DHT22;37054;52.054;8.600;2022-07-10T10:08:21;29.80;27.20
51029;DHT22;37054;52.054;8.600;2022-07-10T10:10:48;29.80;27.60
51029;DHT22;37054;52.054;8.600;2022-07-10T10:13:18;29.90;27.80
51029;DHT22;37054;52.054;8.600;2022-07-10T10:15:46;30.00;27.90
51029;DHT22;37054;52.054;8.600;2022-07-10T10:18:35;30.10;27.90
51029;DHT22;37054;52.054;8.600;2022-07-10T10:21:22;30.30;27.80
51029;DHT22;37054;52.054;8.600;2022-07-10T10:23:48;30.30;27.80
51029;DHT22;37054;52.054;8.600;2022-07-10T10:26:14;30.40;27.60
51029;DHT22;37054;52.054;8.600;2022-07-10T10:28:39;30.40;27.80
51029;DHT22;37054;52.054;8.600;2022-07-10T10:31:05;30.60;27.90
51029;DHT22;37054;52.054;8.600;2022-07-10T10:36:09;30.70;27.50
51029;DHT22;37054;52.054;8.600;2022-07-10T10:41:28;30.80;27.70
51029;DHT22;37054;52.054;8.600;2022-07-10T10:46:32;30.60;27.50
51029;DHT22;37054;52.054;8.600;2022-07-10T10:49:07;30.30;27.70
51029;DHT22;37054;52.054;8.600;2022-07-10T10:54:17;30.00;28.60
51029;DHT22;37054;52.054;8.600;2022-07-10T10:56:44;29.90;28.90
51029;DHT22;37054;52.054;8.600;2022-07-10T10:59:09;29.80;29.00
51029;DHT22;37054;52.054;8.600;2022-07-10T11:01:35;29.70;29.50
51029;DHT22;37054;52.054;8.600;2022-07-10T11:06:39;29.50;29.70
51029;DHT22;37054;52.054;8.600;2022-07-10T11:14:29;29.60;30.10
51029;DHT22;37054;52.054;8.600;2022-07-10T11:16:58;29.60;30.20
51029;DHT22;37054;52.054;8.600;2022-07-10T11:19:24;29.50;30.30
51029;DHT22;37054;52.054;8.600;2022-07-10T11:21:54;29.50;30.60
51029;DHT22;37054;52.054;8.600;2022-07-10T11:24:40;29.50;30.80
51029;DHT22;37054;52.054;8.600;2022-07-10T11:30:00;28.90;33.20
51029;DHT22;37054;52.054;8.600;2022-07-10T11:32:25;28.20;38.10
51029;DHT22;37054;52.054;8.600;2022-07-10T11:34:51;27.50;42.70
51029;DHT22;37054;52.054;8.600;2022-07-10T11:37:17;27.10;46.00
51029;DHT22;37054;52.054;8.600;2022-07-10T11:39:43;26.80;48.30
51029;DHT22;37054;52.054;8.600;2022-07-10T11:42:11;26.60;49.60
51029;DHT22;37054;52.054;8.600;2022-07-10T11:44:40;26.50;50.80
51029;DHT22;37054;52.054;8.600;2022-07-10T11:47:06;26.60;51.80
51029;DHT22;37054;52.054;8.600;2022-07-10T11:49:33;26.60;52.00
51029;DHT22;37054;52.054;8.600;2022-07-10T11:52:03;26.70;52.70
51029;DHT22;37054;52.054;8.600;2022-07-10T11:54:29;26.80;52.60
51029;DHT22;37054;52.054;8.600;2022-07-10T11:56:54;26.80;49.30
51029;DHT22;37054;52.054;8.600;2022-07-10T11:59:38;26.80;50.10
51029;DHT22;37054;52.054;8.600;2022-07-10T12:02:04;26.80;51.20
51029;DHT22;37054;52.054;8.600;2022-07-10T12:04:30;27.00;51.90
51029;DHT22;37054;52.054;8.600;2022-07-10T12:06:56;27.20;52.10
51029;DHT22;37054;52.054;8.600;2022-07-10T12:09:22;27.20;49.50
51029;DHT22;37054;52.054;8.600;2022-07-10T12:12:07;27.10;48.50
51029;DHT22;37054;52.054;8.600;2022-07-10T12:14:36;27.10;50.10
51029;DHT22;37054;52.054;8.600;2022-07-10T12:17:08;27.10;51.30
51029;DHT22;37054;52.054;8.600;2022-07-10T12:19:38;27.20;52.00
51029;DHT22;37054;52.054;8.600;2022-07-10T12:22:04;27.20;51.80
51029;DHT22;37054;52.054;8.600;2022-07-10T12:24:30;27.20;50.90
51029;DHT22;37054;52.054;8.600;2022-07-10T12:26:56;27.30;52.00
51029;DHT22;37054;52.054;8.600;2022-07-10T12:29:25;27.50;52.90
51029;DHT22;37054;52.054;8.600;2022-07-10T12:31:52;27.80;52.80
51029;DHT22;37054;52.054;8.600;2022-07-10T12:34:18;27.90;52.30
51029;DHT22;37054;52.054;8.600;2022-07-10T12:36:47;28.00;50.90
51029;DHT22;37054;52.054;8.600;2022-07-10T12:39:14;28.00;48.50
51029;DHT22;37054;52.054;8.600;2022-07-10T12:41:54;28.00;49.10
51029;DHT22;37054;52.054;8.600;2022-07-10T12:47:11;28.20;49.90
51029;DHT22;37054;52.054;8.600;2022-07-10T12:52:22;28.90;49.80
51029;DHT22;37054;52.054;8.600;2022-07-10T12:54:48;29.40;49.80
51029;DHT22;37054;52.054;8.600;2022-07-10T12:57:14;29.80;48.70
51029;DHT22;37054;52.054;8.600;2022-07-10T12:59:42;30.30;48.30
51029;DHT22;37054;52.054;8.600;2022-07-10T13:04:51;31.30;45.50
51029;DHT22;37054;52.054;8.600;2022-07-10T13:07:19;31.80;45.30
51029;DHT22;37054;52.054;8.600;2022-07-10T13:09:44;32.10;43.70
51029;DHT22;37054;52.054;8.600;2022-07-10T13:12:10;32.20;43.60
51029;DHT22;37054;52.054;8.600;2022-07-10T13:14:36;32.20;43.50
51029;DHT22;37054;52.054;8.600;2022-07-10T13:17:01;32.20;42.10
51029;DHT22;37054;52.054;8.600;2022-07-10T13:19:27;32.10;42.00
51029;DHT22;37054;52.054;8.600;2022-07-10T13:21:52;32.00;41.70
51029;DHT22;37054;52.054;8.600;2022-07-10T13:24:23;31.90;41.70
51029;DHT22;37054;52.054;8.600;2022-07-10T13:26:48;31.80;40.60
51029;DHT22;37054;52.054;8.600;2022-07-10T13:29:21;31.50;41.00
51029;DHT22;37054;52.054;8.600;2022-07-10T13:31:46;31.30;40.80
51029;DHT22;37054;52.054;8.600;2022-07-10T13:34:12;31.00;41.10
51029;DHT22;37054;52.054;8.600;2022-07-10T13:36:38;30.60;40.80
51029;DHT22;37054;52.054;8.600;2022-07-10T13:39:03;30.00;40.50
51029;DHT22;37054;52.054;8.600;2022-07-10T13:41:29;29.30;42.30
51029;DHT22;37054;52.054;8.600;2022-07-10T13:43:54;28.60;43.20
51029;DHT22;37054;52.054;8.600;2022-07-10T13:46:19;28.00;45.20
51029;DHT22;37054;52.054;8.600;2022-07-10T13:48:45;27.40;47.30
51029;DHT22;37054;52.054;8.600;2022-07-10T13:51:10;26.80;49.00
51029;DHT22;37054;52.054;8.600;2022-07-10T13:53:36;26.40;50.30
51029;DHT22;37054;52.054;8.600;2022-07-10T13:56:04;26.20;51.50
51029;DHT22;37054;52.054;8.600;2022-07-10T13:58:29;26.20;53.70
51029;DHT22;37054;52.054;8.600;2022-07-10T14:00:55;26.30;53.80
51029;DHT22;37054;52.054;8.600;2022-07-10T14:03:20;26.50;54.60
51029;DHT22;37054;52.054;8.600;2022-07-10T14:05:46;26.60;55.00
51029;DHT22;37054;52.054;8.600;2022-07-10T14:08:12;26.70;54.60
51029;DHT22;37054;52.054;8.600;2022-07-10T14:10:38;26.90;53.80
51029;DHT22;37054;52.054;8.600;2022-07-10T14:13:03;27.10;52.80
51029;DHT22;37054;52.054;8.600;2022-07-10T14:15:30;27.30;52.50
51029;DHT22;37054;52.054;8.600;2022-07-10T14:17:56;27.50;52.40
51029;DHT22;37054;52.054;8.600;2022-07-10T14:20:21;27.70;52.60
51029;DHT22;37054;52.054;8.600;2022-07-10T14:22:46;28.00;50.20
51029;DHT22;37054;52.054;8.600;2022-07-10T14:25:13;28.10;49.50
51029;DHT22;37054;52.054;8.600;2022-07-10T14:27:38;28.40;50.30
51029;DHT22;37054;52.054;8.600;2022-07-10T14:30:04;28.70;49.30
51029;DHT22;37054;52.054;8.600;2022-07-10T14:32:33;28.80;47.30
51029;DHT22;37054;52.054;8.600;2022-07-10T14:34:58;29.10;48.20
51029;DHT22;37054;52.054;8.600;2022-07-10T14:37:24;29.20;47.70
51029;DHT22;37054;52.054;8.600;2022-07-10T14:39:50;29.30;47.60
51029;DHT22;37054;52.054;8.600;2022-07-10T14:42:16;29.30;46.80
51029;DHT22;37054;52.054;8.600;2022-07-10T14:44:41;29.30;45.40
51029;DHT22;37054;52.054;8.600;2022-07-10T14:47:09;29.30;42.40
51029;DHT22;37054;52.054;8.600;2022-07-10T14:49:35;29.20;42.90
51029;DHT22;37054;52.054;8.600;2022-07-10T14:52:01;29.20;42.20
51029;DHT22;37054;52.054;8.600;2022-07-10T14:54:27;29.00;42.90
51029;DHT22;37054;52.054;8.600;2022-07-10T14:56:53;29.00;42.80
51029;DHT22;37054;52.054;8.600;2022-07-10T14:59:18;29.00;43.20
51029;DHT22;37054;52.054;8.600;2022-07-10T15:01:44;29.10;43.50
51029;DHT22;37054;52.054;8.600;2022-07-10T15:04:09;29.00;43.10
51029;DHT22;37054;52.054;8.600;2022-07-10T15:06:37;29.00;43.80
51029;DHT22;37054;52.054;8.600;2022-07-10T15:09:03;28.90;44.70
51029;DHT22;37054;52.054;8.600;2022-07-10T15:11:29;28.90;45.10
51029;DHT22;37054;52.054;8.600;2022-07-10T15:13:55;28.80;45.20
51029;DHT22;37054;52.054;8.600;2022-07-10T15:16:24;28.80;45.20
51029;DHT22;37054;52.054;8.600;2022-07-10T15:18:51;29.00;45.70
51029;DHT22;37054;52.054;8.600;2022-07-10T15:21:17;29.10;45.60
51029;DHT22;37054;52.054;8.600;2022-07-10T15:23:42;29.10;44.90
51029;DHT22;37054;52.054;8.600;2022-07-10T15:26:08;29.20;42.60
51029;DHT22;37054;52.054;8.600;2022-07-10T15:28:36;29.10;42.50
51029;DHT22;37054;52.054;8.600;2022-07-10T15:31:02;29.10;43.30
51029;DHT22;37054;52.054;8.600;2022-07-10T15:33:31;29.00;41.70
51029;DHT22;37054;52.054;8.600;2022-07-10T15:36:04;28.80;42.20
51029;DHT22;37054;52.054;8.600;2022-07-10T15:38:30;28.70;41.60
51029;DHT22;37054;52.054;8.600;2022-07-10T15:40:56;28.60;42.30
51029;DHT22;37054;52.054;8.600;2022-07-10T15:43:23;28.50;42.20
51029;DHT22;37054;52.054;8.600;2022-07-10T15:45:50;28.40;42.00
51029;DHT22;37054;52.054;8.600;2022-07-10T15:48:16;28.40;41.60
51029;DHT22;37054;52.054;8.600;2022-07-10T15:50:41;28.30;40.90
51029;DHT22;37054;52.054;8.600;2022-07-10T15:53:21;28.20;41.30
51029;DHT22;37054;52.054;8.600;2022-07-10T15:55:46;28.10;41.00
51029;DHT22;37054;52.054;8.600;2022-07-10T15:58:12;28.00;41.80
51029;DHT22;37054;52.054;8.600;2022-07-10T16:00:38;28.00;41.70
51029;DHT22;37054;52.054;8.600;2022-07-10T16:03:03;28.00;42.10
51029;DHT22;37054;52.054;8.600;2022-07-10T16:05:29;28.00;41.60
51029;DHT22;37054;52.054;8.600;2022-07-10T16:07:54;28.00;41.80
51029;DHT22;37054;52.054;8.600;2022-07-10T16:10:20;28.10;41.70
51029;DHT22;37054;52.054;8.600;2022-07-10T16:12:45;28.00;40.30
51029;DHT22;37054;52.054;8.600;2022-07-10T16:15:11;27.80;39.50